Time;durP1;ratioP1;P1;durP2;ratioP2;P2;SDS_P1;SDS_P2;PMS_P1;PMS_P2;Temp;Humidity;BMP_temperature;BMP_pressure;BME280_temperature;BME280_humidity;BME280_pressure;Samples;Min_cycle;Max_cycle;Signal;HPM_P1;HPM_P2
2023/10/29 00:00:23;;;;;;;10.55;4.95;;;;;;;;;;5887857;28;20041;-75
2023/10/29 00:03:13;;;;;;;5.68;2.75;;;;;;;;;;5907841;28;20044;-75
2023/10/29 00:06:04;;;;;;;4.93;3.20;;;;;;;;;;5927062;28;20060;-75
2023/10/29 00:08:56;;;;;;;4.03;2.40;;;;;;;;;;5911638;28;20044;-75
2023/10/29 00:11:47;;;;;;;4.53;2.92;;;;;;;;;;5903759;28;20083;-75
2023/10/29 00:14:37;;;;;;;1.65;1.55;;;;;;;;;;5887533;28;20049;-75
2023/10/29 00:17:28;;;;;;;2.40;1.45;;;;;;;;;;5888024;28;20128;-75
2023/10/29 00:20:19;;;;;;;5.93;1.73;;;;;;;;;;5887714;28;20059;-75
2023/10/29 00:23:10;;;;;;;7.10;2.50;;;;;;;;;;5887542;28;20488;-74
2023/10/29 00:26:01;;;;;;;4.38;2.03;;;;;;;;;;5887742;28;20064;-72
2023/10/29 00:28:51;;;;;;;6.13;3.05;;;;;;;;;;5887802;28;20049;-75
2023/10/29 00:31:42;;;;;;;5.65;2.80;;;;;;;;;;5892016;28;20051;-75
2023/10/29 00:34:33;;;;;;;3.08;1.27;;;;;;;;;;5910637;28;20048;-74
2023/10/29 00:37:23;;;;;;;7.90;3.30;;;;;;;;;;5910968;28;20453;-74
2023/10/29 00:40:14;;;;;;;2.70;1.95;;;;;;;;;;5910545;28;20445;-74
2023/10/29 00:43:05;;;;;;;3.53;2.38;;;;;;;;;;5894976;28;20045;-74
2023/10/29 00:45:57;;;;;;;2.08;1.88;;;;;;;;;;5887676;28;20434;-75
2023/10/29 00:48:48;;;;;;;0.90;0.90;;;;;;;;;;5887223;28;20514;-74
2023/10/29 00:51:39;;;;;;;1.35;1.25;;;;;;;;;;5886810;28;20533;-75
2023/10/29 00:54:30;;;;;;;5.40;2.40;;;;;;;;;;5885841;28;20055;-74
2023/10/29 00:57:21;;;;;;;2.40;1.98;;;;;;;;;;5885879;28;20049;-74
2023/10/29 01:00:12;;;;;;;2.63;1.80;;;;;;;;;;5886796;28;20057;-74
2023/10/29 01:03:03;;;;;;;12.18;6.05;;;;;;;;;;5899426;28;20048;-74
2023/10/29 01:05:55;;;;;;;7.32;3.47;;;;;;;;;;5910969;28;20048;-75
2023/10/29 01:08:46;;;;;;;2.28;1.75;;;;;;;;;;5901393;28;20049;-75
2023/10/29 01:11:38;;;;;;;4.85;2.92;;;;;;;;;;5886837;28;20076;-74
2023/10/29 01:14:30;;;;;;;2.47;2.10;;;;;;;;;;5909809;28;20611;-74
2023/10/29 01:17:21;;;;;;;1.63;1.52;;;;;;;;;;5910521;28;20155;-74
2023/10/29 01:20:12;;;;;;;4.35;2.17;;;;;;;;;;5909885;28;20414;-74
2023/10/29 01:23:03;;;;;;;3.20;2.22;;;;;;;;;;5909897;28;20072;-74
2023/10/29 01:25:57;;;;;;;2.38;1.92;;;;;;;;;;5910660;28;20059;-74
2023/10/29 01:28:48;;;;;;;7.03;3.00;;;;;;;;;;5909706;28;20052;-74
2023/10/29 01:31:39;;;;;;;3.33;1.67;;;;;;;;;;5910310;28;20502;-74
2023/10/29 01:34:29;;;;;;;2.47;1.77;;;;;;;;;;5887586;28;20057;-74
2023/10/29 01:37:20;;;;;;;2.67;1.70;;;;;;;;;;5886936;28;20095;-74
2023/10/29 01:40:12;;;;;;;2.72;2.00;;;;;;;;;;5886184;28;20056;-75
2023/10/29 01:43:03;;;;;;;5.60;3.22;;;;;;;;;;5893937;28;20056;-74
2023/10/29 01:45:54;;;;;;;5.00;2.47;;;;;;;;;;5910177;28;20513;-74
2023/10/29 01:48:45;;;;;;;2.83;1.88;;;;;;;;;;5900906;28;20128;-74
2023/10/29 01:51:36;;;;;;;3.38;2.40;;;;;;;;;;5886245;28;20049;-75
2023/10/29 01:54:27;;;;;;;7.32;3.35;;;;;;;;;;5886410;28;20151;-74
2023/10/29 01:57:17;;;;;;;4.55;2.58;;;;;;;;;;5888108;28;20041;-74
2023/10/29 02:00:09;;;;;;;4.40;2.92;;;;;;;;;;5890328;28;20477;-74
2023/10/29 02:03:00;;;;;;;5.43;2.45;;;;;;;;;;5891365;28;20052;-75
2023/10/29 02:05:52;;;;;;;7.32;3.20;;;;;;;;;;5891296;28;20049;-74
2023/10/29 02:08:43;;;;;;;4.05;3.00;;;;;;;;;;5890607;28;20118;-74
2023/10/29 02:11:34;;;;;;;3.05;2.75;;;;;;;;;;5890386;28;20151;-74
2023/10/29 02:14:25;;;;;;;7.68;2.83;;;;;;;;;;5890272;28;20045;-75
2023/10/29 02:17:15;;;;;;;4.45;2.47;;;;;;;;;;5890805;28;20499;-74
2023/10/29 02:20:07;;;;;;;9.18;5.25;;;;;;;;;;5889970;28;20414;-74
2023/10/29 02:22:58;;;;;;;5.38;3.05;;;;;;;;;;5890946;28;20045;-74
2023/10/29 02:25:48;;;;;;;6.78;3.65;;;;;;;;;;5889458;28;20053;-74
2023/10/29 02:28:39;;;;;;;8.85;3.65;;;;;;;;;;5889902;28;20052;-74
2023/10/29 02:31:30;;;;;;;3.22;2.03;;;;;;;;;;5889988;28;20131;-74
2023/10/29 02:34:21;;;;;;;2.78;2.22;;;;;;;;;;5889957;28;20110;-74
2023/10/29 02:37:12;;;;;;;8.57;3.80;;;;;;;;;;5890280;28;20056;-74
2023/10/29 02:40:03;;;;;;;2.13;1.83;;;;;;;;;;5889453;28;20053;-74
2023/10/29 02:42:54;;;;;;;4.57;2.80;;;;;;;;;;5890238;28;20417;-74
2023/10/29 02:45:45;;;;;;;2.55;2.30;;;;;;;;;;5890095;28;20049;-74
2023/10/29 02:48:36;;;;;;;4.50;2.80;;;;;;;;;;5889639;28;20048;-74
2023/10/29 02:51:27;;;;;;;3.90;3.00;;;;;;;;;;5889829;28;20052;-74
2023/10/29 02:54:18;;;;;;;3.25;2.53;;;;;;;;;;5889676;28;20152;-74
2023/10/29 02:57:08;;;;;;;4.20;2.15;;;;;;;;;;5889855;28;20052;-74
2023/10/29 03:00:00;;;;;;;3.70;2.33;;;;;;;;;;5889470;28;20407;-74
2023/10/29 03:02:50;;;;;;;2.38;2.17;;;;;;;;;;5889750;28;20052;-74
2023/10/29 03:05:41;;;;;;;3.35;3.05;;;;;;;;;;5889486;28;20051;-74
2023/10/29 03:08:46;;;;;;;4.03;3.63;;;;;;;;;;5889080;28;20521;-74
2023/10/29 03:11:37;;;;;;;5.32;3.15;;;;;;;;;;5889071;28;20124;-74
2023/10/29 03:14:28;;;;;;;15.18;6.90;;;;;;;;;;5888964;28;20055;-74
2023/10/29 03:17:19;;;;;;;10.52;4.15;;;;;;;;;;5889504;28;20548;-74
2023/10/29 03:20:11;;;;;;;29.27;17.00;;;;;;;;;;5888488;28;20057;-74
2023/10/29 03:23:02;;;;;;;14.45;7.78;;;;;;;;;;5888908;28;20057;-74
2023/10/29 03:25:52;;;;;;;22.13;7.90;;;;;;;;;;5889436;28;20052;-74
2023/10/29 03:28:43;;;;;;;7.07;4.45;;;;;;;;;;5888428;28;20053;-74
2023/10/29 03:31:34;;;;;;;4.85;3.25;;;;;;;;;;5888656;28;20494;-74
2023/10/29 03:34:25;;;;;;;3.40;2.88;;;;;;;;;;5888602;28;20072;-74
2023/10/29 03:37:16;;;;;;;2.70;1.98;;;;;;;;;;5888998;28;20067;-74
2023/10/29 03:40:07;;;;;;;5.32;3.05;;;;;;;;;;5888546;28;20056;-74
2023/10/29 03:42:58;;;;;;;5.25;3.22;;;;;;;;;;5908011;28;20055;-74
2023/10/29 03:45:49;;;;;;;2.28;1.77;;;;;;;;;;5888893;28;20049;-74
2023/10/29 03:48:44;;;;;;;2.85;2.60;;;;;;;;;;5888408;28;20135;-74
2023/10/29 03:51:43;;;;;;;3.05;1.65;;;;;;;;;;5888165;28;20049;-74
2023/10/29 03:54:34;;;;;;;3.03;1.77;;;;;;;;;;5888504;28;20045;-74
2023/10/29 03:57:25;;;;;;;3.15;2.50;;;;;;;;;;5888549;28;20052;-74
2023/10/29 04:00:16;;;;;;;2.05;1.35;;;;;;;;;;5887891;28;20049;-74
2023/10/29 04:03:07;;;;;;;4.05;2.38;;;;;;;;;;5910037;28;20044;-74
2023/10/29 04:05:58;;;;;;;3.35;2.30;;;;;;;;;;5912115;28;20425;-74
2023/10/29 04:08:48;;;;;;;2.78;2.13;;;;;;;;;;5911277;28;20422;-74
2023/10/29 04:11:39;;;;;;;5.03;3.58;;;;;;;;;;5901835;28;20044;-74
2023/10/29 04:14:30;;;;;;;5.25;3.38;;;;;;;;;;5887577;28;20051;-74
2023/10/29 04:17:21;;;;;;;9.38;2.88;;;;;;;;;;5887806;28;20566;-74
2023/10/29 04:20:12;;;;;;;4.85;2.05;;;;;;;;;;5907386;28;20064;-74
2023/10/29 04:23:03;;;;;;;3.75;2.80;;;;;;;;;;5911021;28;20145;-74
2023/10/29 04:25:53;;;;;;;23.98;9.30;;;;;;;;;;5910256;28;20044;-74
2023/10/29 04:28:45;;;;;;;9.15;5.00;;;;;;;;;;5910507;28;20059;-74
2023/10/29 04:31:36;;;;;;;4.90;2.03;;;;;;;;;;5910449;28;20044;-74
2023/10/29 04:34:26;;;;;;;4.93;2.50;;;;;;;;;;5910618;28;20044;-74
2023/10/29 04:37:17;;;;;;;5.72;2.47;;;;;;;;;;5911010;28;20398;-74
2023/10/29 04:40:08;;;;;;;4.07;2.78;;;;;;;;;;5910264;28;20045;-74
2023/10/29 04:42:59;;;;;;;2.20;2.00;;;;;;;;;;5909341;28;20071;-74
2023/10/29 04:45:50;;;;;;;9.63;2.28;;;;;;;;;;5910738;28;20090;-74
2023/10/29 04:48:41;;;;;;;4.80;2.25;;;;;;;;;;5909113;28;20056;-74
2023/10/29 04:51:32;;;;;;;3.15;1.80;;;;;;;;;;5910226;28;20063;-74
2023/10/29 04:54:23;;;;;;;4.80;2.63;;;;;;;;;;5910540;28;20517;-74
2023/10/29 04:57:14;;;;;;;3.15;1.95;;;;;;;;;;5910524;28;20064;-74
2023/10/29 05:00:05;;;;;;;3.35;2.55;;;;;;;;;;5909929;28;20054;-75
2023/10/29 05:02:56;;;;;;;3.45;2.33;;;;;;;;;;5910821;28;20056;-74
2023/10/29 05:05:47;;;;;;;3.42;2.35;;;;;;;;;;5910532;28;20446;-74
2023/10/29 05:08:41;;;;;;;5.25;3.75;;;;;;;;;;5908831;28;20056;-74
2023/10/29 05:11:31;;;;;;;6.00;2.70;;;;;;;;;;5910080;28;20452;-74
2023/10/29 05:14:23;;;;;;;2.75;2.20;;;;;;;;;;5925344;28;20072;-74
2023/10/29 05:17:13;;;;;;;2.85;2.28;;;;;;;;;;5910373;28;20049;-74
2023/10/29 05:20:08;;;;;;;2.67;2.10;;;;;;;;;;5909569;28;20490;-73
2023/10/29 05:22:59;;;;;;;2.95;2.33;;;;;;;;;;5910769;28;20049;-74
2023/10/29 05:25:50;;;;;;;4.68;2.83;;;;;;;;;;5910175;28;20064;-74
2023/10/29 05:28:41;;;;;;;2.55;2.10;;;;;;;;;;5909749;28;20517;-74
2023/10/29 05:31:32;;;;;;;11.85;2.63;;;;;;;;;;5893990;28;20487;-74
2023/10/29 05:34:23;;;;;;;27.67;2.50;;;;;;;;;;5891400;28;20056;-74
2023/10/29 05:37:13;;;;;;;2.53;1.42;;;;;;;;;;5891618;28;20056;-73
2023/10/29 05:40:05;;;;;;;3.38;2.45;;;;;;;;;;5889602;28;20518;-74
2023/10/29 05:42:56;;;;;;;3.10;1.50;;;;;;;;;;5891491;28;20053;-74
2023/10/29 05:45:47;;;;;;;3.17;2.67;;;;;;;;;;5891596;28;20053;-74
2023/10/29 05:48:38;;;;;;;12.32;2.47;;;;;;;;;;5890948;28;20518;-73
2023/10/29 05:51:29;;;;;;;2.92;1.67;;;;;;;;;;5904968;28;20048;-74
2023/10/29 05:54:19;;;;;;;2.97;2.22;;;;;;;;;;5914108;28;20132;-73
2023/10/29 05:57:11;;;;;;;1.92;1.73;;;;;;;;;;5914430;28;20056;-73
2023/10/29 06:00:04;;;;;;;1.90;1.70;;;;;;;;;;5913485;28;20056;-73
2023/10/29 06:02:54;;;;;;;3.03;1.77;;;;;;;;;;5914455;28;20048;-74
2023/10/29 06:05:45;;;;;;;12.57;2.10;;;;;;;;;;5914198;28;20049;-74
2023/10/29 06:08:36;;;;;;;2.80;1.85;;;;;;;;;;5913881;28;20580;-74
2023/10/29 06:11:27;;;;;;;1.52;1.42;;;;;;;;;;5913931;28;20494;-73
2023/10/29 06:14:18;;;;;;;1.65;1.13;;;;;;;;;;5913395;28;20052;-74
2023/10/29 06:17:09;;;;;;;3.83;2.28;;;;;;;;;;5914033;28;20055;-73
2023/10/29 06:20:20;;;;;;;2.15;1.77;;;;;;;;;;5913135;28;20049;-74
2023/10/29 06:23:11;;;;;;;2.90;2.05;;;;;;;;;;5913702;28;20044;-74
2023/10/29 06:26:10;;;;;;;3.10;1.70;;;;;;;;;;5913677;28;20067;-73
2023/10/29 06:29:01;;;;;;;4.78;3.15;;;;;;;;;;5902824;28;20053;-72
2023/10/29 06:31:51;;;;;;;6.25;3.05;;;;;;;;;;5903605;28;20394;-74
2023/10/29 06:34:42;;;;;;;3.03;1.27;;;;;;;;;;5913409;28;20060;-74
2023/10/29 06:37:33;;;;;;;1.20;1.10;;;;;;;;;;5913586;28;20064;-74
2023/10/29 06:40:25;;;;;;;2.10;1.17;;;;;;;;;;5912793;28;20048;-74
2023/10/29 06:43:17;;;;;;;3.22;1.92;;;;;;;;;;5912770;28;20066;-74
2023/10/29 06:46:07;;;;;;;5.70;1.73;;;;;;;;;;5913388;28;20052;-74
2023/10/29 06:48:58;;;;;;;1.25;1.15;;;;;;;;;;5913609;28;20060;-75
2023/10/29 06:51:49;;;;;;;3.70;2.33;;;;;;;;;;5900588;28;20179;-74
2023/10/29 06:54:40;;;;;;;1.67;1.50;;;;;;;;;;5889800;28;20513;-74
2023/10/29 06:57:31;;;;;;;1.25;1.05;;;;;;;;;;5890118;28;20485;-75
2023/10/29 07:00:22;;;;;;;1.05;0.70;;;;;;;;;;5889697;28;20799;-75
2023/10/29 07:03:13;;;;;;;1.80;1.48;;;;;;;;;;5889225;28;20056;-75
2023/10/29 07:06:14;;;;;;;1.20;0.90;;;;;;;;;;5889836;28;20049;-74
2023/10/29 07:09:04;;;;;;;0.90;0.90;;;;;;;;;;5889463;28;20067;-74
2023/10/29 07:11:56;;;;;;;8.60;4.32;;;;;;;;;;5889730;28;20049;-75
2023/10/29 07:14:46;;;;;;;23.75;13.77;;;;;;;;;;5889199;28;20041;-75
2023/10/29 07:17:37;;;;;;;57.33;31.98;;;;;;;;;;5889593;28;20040;-75
2023/10/29 07:20:28;;;;;;;18.67;7.95;;;;;;;;;;5889064;28;20049;-74
2023/10/29 07:23:20;;;;;;;37.70;14.85;;;;;;;;;;5888999;28;20445;-75
2023/10/29 07:26:12;;;;;;;16.63;8.50;;;;;;;;;;5889440;28;20064;-75
2023/10/29 07:29:03;;;;;;;13.00;3.97;;;;;;;;;;5888989;28;20502;-74
2023/10/29 07:31:54;;;;;;;4.53;2.70;;;;;;;;;;5889119;28;20049;-75
2023/10/29 07:34:45;;;;;;;5.35;1.25;;;;;;;;;;5889268;28;20538;-75
2023/10/29 07:37:36;;;;;;;1.20;1.10;;;;;;;;;;5888994;28;20491;-75
2023/10/29 07:40:27;;;;;;;19.98;8.35;;;;;;;;;;5888952;28;20052;-75
2023/10/29 07:43:18;;;;;;;1.70;1.50;;;;;;;;;;5907468;28;20056;-74
2023/10/29 07:46:09;;;;;;;0.40;0.40;;;;;;;;;;5912299;28;20049;-74
2023/10/29 07:49:01;;;;;;;1.10;0.75;;;;;;;;;;5912675;28;20052;-74
2023/10/29 07:51:51;;;;;;;1.55;0.65;;;;;;;;;;5905207;28;20052;-74
2023/10/29 07:54:43;;;;;;;0.98;0.85;;;;;;;;;;5888062;28;20045;-74
2023/10/29 07:57:33;;;;;;;2.90;1.30;;;;;;;;;;5888878;28;20056;-75
2023/10/29 08:00:24;;;;;;;3.70;1.23;;;;;;;;;;5887984;28;20045;-74
2023/10/29 08:03:15;;;;;;;2.90;1.13;;;;;;;;;;5885974;28;20040;-74
2023/10/29 08:06:10;;;;;;;22.30;1.02;;;;;;;;;;5885779;28;20049;-74
2023/10/29 08:09:01;;;;;;;7.18;0.88;;;;;;;;;;5888113;28;20391;-74
2023/10/29 08:11:52;;;;;;;1.58;0.75;;;;;;;;;;5889027;28;20538;-75
2023/10/29 08:14:43;;;;;;;1.83;1.00;;;;;;;;;;5887948;28;20087;-75
2023/10/29 08:17:34;;;;;;;1.17;0.70;;;;;;;;;;5887678;28;20072;-75
2023/10/29 08:20:24;;;;;;;4.22;1.63;;;;;;;;;;5886111;28;20128;-75
2023/10/29 08:23:15;;;;;;;2.08;1.75;;;;;;;;;;5885617;28;20036;-75
2023/10/29 08:26:06;;;;;;;1.02;0.90;;;;;;;;;;5886251;28;20049;-75
2023/10/29 08:28:57;;;;;;;3.25;1.27;;;;;;;;;;5886293;28;20052;-75
2023/10/29 08:31:47;;;;;;;2.22;1.35;;;;;;;;;;5886083;28;20049;-75
2023/10/29 08:34:39;;;;;;;4.25;1.63;;;;;;;;;;5887851;28;20053;-75
2023/10/29 08:37:32;;;;;;;3.03;1.25;;;;;;;;;;5888477;28;20048;-75
2023/10/29 08:40:22;;;;;;;3.17;1.88;;;;;;;;;;5886802;28;20331;-75
2023/10/29 08:43:13;;;;;;;8.40;1.38;;;;;;;;;;5888070;28;20413;-75
2023/10/29 08:46:04;;;;;;;2.17;1.30;;;;;;;;;;5888305;28;20159;-75
2023/10/29 08:48:55;;;;;;;7.70;2.17;;;;;;;;;;5888449;28;20059;-76
2023/10/29 08:51:46;;;;;;;1.17;0.85;;;;;;;;;;5887903;28;20088;-76
2023/10/29 08:54:37;;;;;;;1.02;0.70;;;;;;;;;;5903534;28;20045;-76
2023/10/29 08:57:28;;;;;;;0.93;0.85;;;;;;;;;;5911223;28;20045;-76
2023/10/29 09:00:19;;;;;;;21.00;1.15;;;;;;;;;;5910589;28;20055;-75
2023/10/29 09:03:10;;;;;;;2.33;1.10;;;;;;;;;;5910496;28;20127;-75
2023/10/29 09:06:03;;;;;;;2.78;1.55;;;;;;;;;;5911001;28;20390;-75
2023/10/29 09:08:55;;;;;;;5.20;1.30;;;;;;;;;;5911317;28;20052;-75
2023/10/29 09:11:50;;;;;;;2.13;1.55;;;;;;;;;;5910919;28;20048;-75
2023/10/29 09:14:40;;;;;;;1.08;0.85;;;;;;;;;;5910025;28;20055;-76
2023/10/29 09:17:31;;;;;;;0.75;0.70;;;;;;;;;;5910965;28;20417;-75
2023/10/29 09:20:22;;;;;;;2.63;1.13;;;;;;;;;;5910393;28;20052;-75
2023/10/29 09:23:16;;;;;;;2.10;0.80;;;;;;;;;;5908057;28;20045;-75
2023/10/29 09:26:07;;;;;;;1.27;1.00;;;;;;;;;;5887267;28;20049;-76
2023/10/29 09:29:00;;;;;;;0.77;0.40;;;;;;;;;;5887395;28;20475;-75
2023/10/29 09:31:51;;;;;;;0.30;0.30;;;;;;;;;;5887408;28;20045;-74
2023/10/29 09:34:42;;;;;;;2.00;0.98;;;;;;;;;;5886481;28;20052;-75
2023/10/29 09:37:34;;;;;;;1.13;0.90;;;;;;;;;;5887374;28;20441;-76
2023/10/29 09:40:25;;;;;;;2.28;1.15;;;;;;;;;;5886980;28;20048;-75
2023/10/29 09:43:19;;;;;;;1.40;0.68;;;;;;;;;;5886706;28;20052;-75
2023/10/29 09:46:11;;;;;;;1.02;0.20;;;;;;;;;;5885812;28;20056;-75
2023/10/29 09:49:03;;;;;;;14.32;1.27;;;;;;;;;;5887111;28;20599;-73
2023/10/29 09:51:54;;;;;;;1.15;0.55;;;;;;;;;;5887689;28;20056;-75
2023/10/29 09:54:46;;;;;;;1.13;0.50;;;;;;;;;;5886342;28;20049;-75
2023/10/29 09:57:38;;;;;;;2.72;0.68;;;;;;;;;;5887190;28;20053;-76
2023/10/29 10:00:29;;;;;;;0.52;0.40;;;;;;;;;;5886661;28;20052;-75
2023/10/29 10:03:20;;;;;;;0.70;0.50;;;;;;;;;;5886151;28;20045;-76
2023/10/29 10:06:16;;;;;;;2.65;1.08;;;;;;;;;;5886106;28;20053;-76
2023/10/29 10:09:10;;;;;;;1.50;0.43;;;;;;;;;;5886745;28;20060;-76
2023/10/29 10:12:04;;;;;;;1.15;0.50;;;;;;;;;;5886864;28;20130;-74
2023/10/29 10:15:04;;;;;;;0.80;0.47;;;;;;;;;;5886494;28;20049;-76
2023/10/29 10:18:01;;;;;;;5.15;0.40;;;;;;;;;;5887704;28;20098;-76
2023/10/29 10:20:57;;;;;;;1.30;1.15;;;;;;;;;;5891373;28;20049;-76
2023/10/29 10:23:57;;;;;;;1.80;0.63;;;;;;;;;;5890634;28;20128;-76
2023/10/29 10:26:48;;;;;;;0.32;0.20;;;;;;;;;;5889780;28;20450;-76
2023/10/29 10:29:39;;;;;;;0.32;0.30;;;;;;;;;;5889284;28;20053;-76
2023/10/29 10:32:30;;;;;;;0.50;0.50;;;;;;;;;;5890881;28;20494;-77
2023/10/29 10:35:21;;;;;;;0.50;0.50;;;;;;;;;;5889119;28;20053;-75
2023/10/29 10:38:14;;;;;;;0.45;0.40;;;;;;;;;;5890514;28;20045;-76
2023/10/29 10:41:05;;;;;;;16.35;1.30;;;;;;;;;;5890995;28;20053;-75
2023/10/29 10:44:19;;;;;;;2.40;0.95;;;;;;;;;;5890370;28;20399;-74
2023/10/29 10:47:10;;;;;;;18.83;0.70;;;;;;;;;;5890320;28;20048;-76
2023/10/29 10:50:02;;;;;;;0.88;0.47;;;;;;;;;;5890859;28;20052;-73
2023/10/29 10:52:57;;;;;;;0.35;0.35;;;;;;;;;;5891021;28;20052;-74
2023/10/29 10:55:48;;;;;;;1.27;0.73;;;;;;;;;;5889974;28;20507;-76
2023/10/29 10:58:54;;;;;;;0.65;0.52;;;;;;;;;;5890392;28;20059;-77
2023/10/29 11:01:46;;;;;;;0.43;0.43;;;;;;;;;;5888788;28;20049;-76
2023/10/29 11:04:38;;;;;;;1.67;0.63;;;;;;;;;;5889266;28;20049;-77
2023/10/29 11:07:31;;;;;;;1.80;1.00;;;;;;;;;;5888700;28;20122;-76
2023/10/29 11:10:23;;;;;;;1.60;0.70;;;;;;;;;;5889325;28;20052;-77
2023/10/29 11:13:18;;;;;;;0.52;0.40;;;;;;;;;;5888101;28;20480;-76
2023/10/29 11:16:49;;;;;;;0.50;0.43;;;;;;;;;;5889109;28;20498;-77
2023/10/29 11:19:47;;;;;;;1.83;0.63;;;;;;;;;;5888377;28;20053;-77
2023/10/29 11:22:47;;;;;;;9.13;0.68;;;;;;;;;;5889637;28;20041;-76
2023/10/29 11:25:39;;;;;;;0.40;0.30;;;;;;;;;;5889497;28;20068;-76
2023/10/29 11:28:33;;;;;;;0.73;0.45;;;;;;;;;;5892705;28;20045;-77
2023/10/29 11:31:27;;;;;;;1.15;0.63;;;;;;;;;;5900354;28;20048;-76
2023/10/29 11:34:23;;;;;;;0.47;0.22;;;;;;;;;;5899908;28;20405;-77
2023/10/29 11:37:34;;;;;;;4.10;1.15;;;;;;;;;;5896626;28;20048;-77
2023/10/29 11:40:25;;;;;;;2.08;0.47;;;;;;;;;;5888870;28;20047;-78
2023/10/29 11:43:22;;;;;;;0.35;0.30;;;;;;;;;;5889324;28;20045;-76
2023/10/29 11:46:13;;;;;;;1.30;0.80;;;;;;;;;;5888528;28;20203;-76
2023/10/29 11:49:05;;;;;;;4.80;0.80;;;;;;;;;;5887357;28;20052;-76
2023/10/29 11:52:03;;;;;;;2.22;1.20;;;;;;;;;;5889189;28;20485;-78
2023/10/29 11:55:02;;;;;;;;;;;;;;;;;;5889145;28;20045;-79
2023/10/29 11:57:54;;;;;;;1.17;0.50;;;;;;;;;;5889080;28;19928;-77
2023/10/29 12:00:45;;;;;;;0.68;0.57;;;;;;;;;;5888945;28;20057;-76
2023/10/29 12:03:35;;;;;;;3.47;1.02;;;;;;;;;;5890933;28;20041;-78
2023/10/29 12:06:41;;;;;;;1.88;0.73;;;;;;;;;;5897123;28;20053;-78
2023/10/29 12:09:34;;;;;;;1.17;0.47;;;;;;;;;;5894353;28;20056;-76
2023/10/29 12:12:25;;;;;;;0.40;0.22;;;;;;;;;;5888345;28;20053;-76
2023/10/29 12:15:16;;;;;;;0.70;0.50;;;;;;;;;;5906931;28;20061;-76
2023/10/29 12:18:19;;;;;;;0.20;0.20;;;;;;;;;;5911134;28;20151;-78
2023/10/29 12:21:10;;;;;;;5.85;0.93;;;;;;;;;;5910060;28;20070;-75
2023/10/29 12:24:02;;;;;;;0.20;0.20;;;;;;;;;;5910884;28;20515;-78
2023/10/29 12:26:54;;;;;;;0.43;0.40;;;;;;;;;;5911319;28;20048;-78
2023/10/29 12:29:45;;;;;;;0.40;0.40;;;;;;;;;;5910507;28;20049;-76
2023/10/29 12:32:36;;;;;;;3.10;0.47;;;;;;;;;;5911239;28;20049;-74
2023/10/29 12:35:36;;;;;;;0.30;0.15;;;;;;;;;;5887813;28;20053;-74
2023/10/29 12:38:27;;;;;;;1.25;0.60;;;;;;;;;;5887433;28;20170;-76
2023/10/29 12:41:21;;;;;;;1.67;0.90;;;;;;;;;;5887715;28;20059;-75
2023/10/29 12:44:16;;;;;;;1.08;0.47;;;;;;;;;;5887597;28;20056;-74
2023/10/29 12:47:15;;;;;;;0.68;0.32;;;;;;;;;;5887290;28;20045;-75
2023/10/29 12:50:06;;;;;;;1.35;0.70;;;;;;;;;;5883863;28;20075;-78
2023/10/29 12:52:57;;;;;;;0.28;0.22;;;;;;;;;;5909063;28;20071;-77
2023/10/29 12:55:48;;;;;;;0.50;0.25;;;;;;;;;;5910818;28;20053;-78
2023/10/29 12:58:39;;;;;;;1.98;0.75;;;;;;;;;;5910011;28;20061;-76
2023/10/29 13:01:29;;;;;;;1.23;0.88;;;;;;;;;;5910454;28;20513;-75
2023/10/29 13:04:24;;;;;;;1.40;0.73;;;;;;;;;;5910571;28;20052;-78
2023/10/29 13:07:17;;;;;;;1.60;0.60;;;;;;;;;;5910116;28;20044;-78
2023/10/29 13:10:09;;;;;;;1.60;0.73;;;;;;;;;;5890751;28;20055;-76
2023/10/29 13:13:00;;;;;;;8.60;3.65;;;;;;;;;;5886970;28;20053;-78
2023/10/29 13:15:51;;;;;;;12.00;5.25;;;;;;;;;;5885670;28;20503;-77
2023/10/29 13:18:42;;;;;;;5.13;2.00;;;;;;;;;;5887122;28;20099;-77
2023/10/29 13:21:34;;;;;;;2.05;0.82;;;;;;;;;;5884487;28;20057;-76
2023/10/29 13:24:25;;;;;;;7.68;2.88;;;;;;;;;;5885208;28;20045;-78
2023/10/29 13:27:18;;;;;;;1.17;1.08;;;;;;;;;;5883631;28;20045;-78
2023/10/29 13:30:10;;;;;;;1.00;0.75;;;;;;;;;;5888689;28;20056;-76
2023/10/29 13:33:00;;;;;;;2.17;0.70;;;;;;;;;;5902685;28;20060;-78
2023/10/29 13:35:51;;;;;;;2.35;0.70;;;;;;;;;;5912629;28;20052;-77
2023/10/29 13:38:42;;;;;;;0.85;0.80;;;;;;;;;;5900016;28;20094;-76
2023/10/29 13:41:40;;;;;;;1.35;0.52;;;;;;;;;;5910597;28;20148;-76
2023/10/29 13:44:30;;;;;;;2.27;0.80;;;;;;;;;;5895191;28;20494;-76
2023/10/29 13:47:22;;;;;;;2.28;0.80;;;;;;;;;;5887299;28;20061;-78
2023/10/29 13:50:13;;;;;;;34.53;11.95;;;;;;;;;;5887504;28;20053;-77
2023/10/29 13:53:04;;;;;;;23.20;5.03;;;;;;;;;;5887699;28;20056;-77
2023/10/29 13:56:08;;;;;;;9.23;0.75;;;;;;;;;;5891046;28;20049;-77
2023/10/29 13:58:58;;;;;;;5.20;0.90;;;;;;;;;;5891651;28;20068;-77
2023/10/29 14:01:49;;;;;;;1.98;0.93;;;;;;;;;;5891868;28;20052;-77
2023/10/29 14:04:40;;;;;;;1.42;0.40;;;;;;;;;;5891236;28;20052;-78
2023/10/29 14:07:32;;;;;;;2.58;0.80;;;;;;;;;;5891474;28;20048;-78
2023/10/29 14:10:22;;;;;;;1.65;0.82;;;;;;;;;;5892635;28;20087;-77
2023/10/29 14:13:13;;;;;;;0.55;0.43;;;;;;;;;;5909446;28;20402;-78
2023/10/29 14:16:04;;;;;;;2.15;0.82;;;;;;;;;;5897143;28;20047;-77
2023/10/29 14:18:55;;;;;;;2.80;1.00;;;;;;;;;;5903577;28;20056;-78
2023/10/29 14:21:49;;;;;;;3.25;1.27;;;;;;;;;;5890695;28;20399;-78
2023/10/29 14:24:40;;;;;;;1.65;0.98;;;;;;;;;;5889224;28;20422;-78
2023/10/29 14:27:31;;;;;;;3.40;1.38;;;;;;;;;;5886041;28;20060;-78
2023/10/29 14:30:22;;;;;;;6.68;2.75;;;;;;;;;;5891223;28;20505;-78
2023/10/29 14:33:13;;;;;;;8.07;3.92;;;;;;;;;;5905832;28;20052;-78
2023/10/29 14:36:04;;;;;;;4.18;3.35;;;;;;;;;;5890526;28;20052;-78
2023/10/29 14:38:55;;;;;;;6.25;3.00;;;;;;;;;;5891223;28;20052;-77
2023/10/29 14:41:46;;;;;;;3.47;2.55;;;;;;;;;;5890927;28;20072;-78
2023/10/29 14:44:36;;;;;;;5.93;3.22;;;;;;;;;;5888600;28;20052;-78
2023/10/29 14:47:28;;;;;;;6.53;3.10;;;;;;;;;;5890456;28;20494;-77
2023/10/29 14:50:19;;;;;;;7.82;3.00;;;;;;;;;;5889109;28;20076;-77
2023/10/29 14:53:10;;;;;;;1.85;1.40;;;;;;;;;;5890409;28;20071;-77
2023/10/29 14:56:01;;;;;;;1.35;0.85;;;;;;;;;;5891703;28;20057;-73
2023/10/29 14:58:52;;;;;;;1.90;1.15;;;;;;;;;;5890449;28;20049;-77
2023/10/29 15:01:43;;;;;;;1.48;0.77;;;;;;;;;;5905751;28;20045;-77
2023/10/29 15:04:34;;;;;;;3.60;0.68;;;;;;;;;;5897676;28;20049;-77
2023/10/29 15:07:25;;;;;;;6.07;1.00;;;;;;;;;;5889840;28;20076;-77
2023/10/29 15:10:16;;;;;;;5.00;2.65;;;;;;;;;;5890142;28;20051;-77
2023/10/29 15:13:07;;;;;;;3.15;2.15;;;;;;;;;;5889718;28;20049;-76
2023/10/29 15:15:57;;;;;;;1.08;0.98;;;;;;;;;;5889855;28;20045;-77
2023/10/29 15:18:48;;;;;;;3.15;1.55;;;;;;;;;;5889718;28;20049;-77
2023/10/29 15:21:39;;;;;;;1.48;0.82;;;;;;;;;;5889619;28;20052;-78
2023/10/29 15:24:30;;;;;;;1.23;0.57;;;;;;;;;;5888994;28;20503;-78
2023/10/29 15:27:22;;;;;;;1.08;0.80;;;;;;;;;;5889687;28;20053;-77
2023/10/29 15:30:13;;;;;;;3.33;1.27;;;;;;;;;;5889082;28;20442;-77
2023/10/29 15:33:04;;;;;;;6.45;1.40;;;;;;;;;;5889666;28;20754;-77
2023/10/29 15:36:02;;;;;;;1.42;0.90;;;;;;;;;;5889115;28;20056;-77
2023/10/29 15:38:53;;;;;;;1.65;0.85;;;;;;;;;;5887174;28;20049;-77
2023/10/29 15:41:44;;;;;;;3.80;1.60;;;;;;;;;;5888879;28;20399;-77
2023/10/29 15:45:30;;;;;;;15.10;3.40;;;;;;;;;;5760886;27;4100527;-77
2023/10/29 15:48:21;;;;;;;5.47;2.50;;;;;;;;;;5904995;28;20056;-77
2023/10/29 15:51:11;;;;;;;6.57;4.10;;;;;;;;;;5888505;28;20126;-77
2023/10/29 15:54:03;;;;;;;15.27;8.70;;;;;;;;;;5883458;28;20056;-77
2023/10/29 15:56:53;;;;;;;33.78;19.20;;;;;;;;;;5884236;28;20041;-78
2023/10/29 15:59:44;;;;;;;23.05;11.20;;;;;;;;;;5883329;28;20045;-76
2023/10/29 16:02:35;;;;;;;27.52;10.98;;;;;;;;;;5884015;28;20078;-77
2023/10/29 16:05:27;;;;;;;28.45;12.23;;;;;;;;;;5896087;28;20047;-77
2023/10/29 16:08:18;;;;;;;34.30;13.90;;;;;;;;;;5906498;28;20048;-77
2023/10/29 16:11:21;;;;;;;10.02;5.13;;;;;;;;;;5888078;28;20103;-77
2023/10/29 16:14:12;;;;;;;10.57;4.43;;;;;;;;;;5882877;28;20049;-76
2023/10/29 16:17:03;;;;;;;6.05;2.80;;;;;;;;;;5883261;28;20399;-77
2023/10/29 16:19:54;;;;;;;9.82;2.63;;;;;;;;;;5883504;28;20047;-77
2023/10/29 16:22:45;;;;;;;9.65;2.97;;;;;;;;;;5882131;28;20048;-77
2023/10/29 16:25:36;;;;;;;3.72;2.65;;;;;;;;;;5882866;28;20411;-77
2023/10/29 16:28:26;;;;;;;12.77;4.53;;;;;;;;;;5881648;28;20046;-76
2023/10/29 16:31:18;;;;;;;13.98;4.03;;;;;;;;;;5882310;28;20053;-77
2023/10/29 16:34:09;;;;;;;24.90;10.68;;;;;;;;;;5882497;28;20438;-77
2023/10/29 16:37:00;;;;;;;20.30;7.75;;;;;;;;;;5883360;28;20565;-76
2023/10/29 16:39:51;;;;;;;20.35;8.80;;;;;;;;;;5874153;28;20123;-77
2023/10/29 16:42:42;;;;;;;9.25;5.25;;;;;;;;;;5882801;28;20067;-76
2023/10/29 16:45:37;;;;;;;31.15;11.82;;;;;;;;;;5882246;28;20045;-76
2023/10/29 16:48:28;;;;;;;46.40;22.88;;;;;;;;;;5881234;28;20045;-77
2023/10/29 16:51:19;;;;;;;42.92;17.65;;;;;;;;;;5882274;28;20067;-76
2023/10/29 16:54:10;;;;;;;19.50;11.65;;;;;;;;;;5882332;28;20057;-77
2023/10/29 16:57:01;;;;;;;18.40;7.95;;;;;;;;;;5866561;28;20189;-76
2023/10/29 16:59:52;;;;;;;29.05;5.60;;;;;;;;;;5866477;28;20092;-77
2023/10/29 17:02:42;;;;;;;4.57;3.08;;;;;;;;;;5866655;28;20052;-77
2023/10/29 17:05:38;;;;;;;8.82;3.33;;;;;;;;;;5865075;28;20045;-77
2023/10/29 17:08:28;;;;;;;17.88;4.45;;;;;;;;;;5865170;28;20054;-77